sensor_id;sensor_type;location;lat;lon;timestamp;temperature;humidity
69626;DHT22;56847;51.984;5.088;2023-11-18T00:01:52;8.80;79.60
69626;DHT22;56847;51.984;5.088;2023-11-18T00:04:20;8.80;79.50
69626;DHT22;56847;51.984;5.088;2023-11-18T00:06:47;8.70;79.40
69626;DHT22;56847;51.984;5.088;2023-11-18T00:09:14;8.70;79.50
69626;DHT22;56847;51.984;5.088;2023-11-18T00:11:41;8.70;79.60
69626;DHT22;56847;51.984;5.088;2023-11-18T00:14:09;8.70;79.60
69626;DHT22;56847;51.984;5.088;2023-11-18T00:16:40;8.70;79.70
69626;DHT22;56847;51.984;5.088;2023-11-18T00:19:07;8.70;79.80
69626;DHT22;56847;51.984;5.088;2023-11-18T00:21:36;8.70;80.00
69626;DHT22;56847;51.984;5.088;2023-11-18T00:24:03;8.80;79.90
69626;DHT22;56847;51.984;5.088;2023-11-18T00:26:31;8.80;79.80
69626;DHT22;56847;51.984;5.088;2023-11-18T00:28:58;8.80;79.90
69626;DHT22;56847;51.984;5.088;2023-11-18T00:31:27;8.80;79.90
69626;DHT22;56847;51.984;5.088;2023-11-18T00:33:54;8.80;79.80
69626;DHT22;56847;51.984;5.088;2023-11-18T00:36:22;8.80;79.80
69626;DHT22;56847;51.984;5.088;2023-11-18T00:38:49;8.80;79.80
69626;DHT22;56847;51.984;5.088;2023-11-18T00:41:16;8.80;79.80
69626;DHT22;56847;51.984;5.088;2023-11-18T00:43:44;8.80;79.70
69626;DHT22;56847;51.984;5.088;2023-11-18T00:46:11;8.70;79.60
69626;DHT22;56847;51.984;5.088;2023-11-18T00:48:38;8.70;79.70
69626;DHT22;56847;51.984;5.088;2023-11-18T00:51:08;8.70;79.60
69626;DHT22;56847;51.984;5.088;2023-11-18T00:53:35;8.60;79.70
69626;DHT22;56847;51.984;5.088;2023-11-18T00:56:02;8.60;79.90
69626;DHT22;56847;51.984;5.088;2023-11-18T00:58:34;8.60;80.10
69626;DHT22;56847;51.984;5.088;2023-11-18T01:01:05;8.60;80.20
69626;DHT22;56847;51.984;5.088;2023-11-18T01:03:33;8.60;80.30
69626;DHT22;56847;51.984;5.088;2023-11-18T01:06:01;8.60;80.40
69626;DHT22;56847;51.984;5.088;2023-11-18T01:08:30;8.70;80.30
69626;DHT22;56847;51.984;5.088;2023-11-18T01:10:57;8.70;80.30
69626;DHT22;56847;51.984;5.088;2023-11-18T01:13:24;8.70;80.30
69626;DHT22;56847;51.984;5.088;2023-11-18T01:15:53;8.70;80.10
69626;DHT22;56847;51.984;5.088;2023-11-18T01:18:20;8.70;80.10
69626;DHT22;56847;51.984;5.088;2023-11-18T01:20:47;8.70;80.20
69626;DHT22;56847;51.984;5.088;2023-11-18T01:23:15;8.70;80.30
69626;DHT22;56847;51.984;5.088;2023-11-18T01:25:42;8.70;80.40
69626;DHT22;56847;51.984;5.088;2023-11-18T01:28:09;8.70;80.40
69626;DHT22;56847;51.984;5.088;2023-11-18T01:30:37;8.70;80.50
69626;DHT22;56847;51.984;5.088;2023-11-18T01:33:07;8.70;80.60
69626;DHT22;56847;51.984;5.088;2023-11-18T01:35:35;8.80;80.60
69626;DHT22;56847;51.984;5.088;2023-11-18T01:38:02;8.80;80.70
69626;DHT22;56847;51.984;5.088;2023-11-18T01:40:29;8.80;80.70
69626;DHT22;56847;51.984;5.088;2023-11-18T01:42:58;8.80;80.70
69626;DHT22;56847;51.984;5.088;2023-11-18T01:45:25;8.90;80.70
69626;DHT22;56847;51.984;5.088;2023-11-18T01:47:54;8.90;80.70
69626;DHT22;56847;51.984;5.088;2023-11-18T01:50:22;8.90;80.70
69626;DHT22;56847;51.984;5.088;2023-11-18T01:52:49;8.90;80.70
69626;DHT22;56847;51.984;5.088;2023-11-18T01:55:19;8.90;80.70
69626;DHT22;56847;51.984;5.088;2023-11-18T01:57:48;8.90;80.70
69626;DHT22;56847;51.984;5.088;2023-11-18T02:00:18;8.90;80.70
69626;DHT22;56847;51.984;5.088;2023-11-18T02:02:45;8.90;80.70
69626;DHT22;56847;51.984;5.088;2023-11-18T02:05:13;8.90;80.60
69626;DHT22;56847;51.984;5.088;2023-11-18T02:07:40;8.90;80.60
69626;DHT22;56847;51.984;5.088;2023-11-18T02:10:08;8.90;80.60
69626;DHT22;56847;51.984;5.088;2023-11-18T02:15:24;8.90;80.50
69626;DHT22;56847;51.984;5.088;2023-11-18T02:17:53;8.90;80.50
69626;DHT22;56847;51.984;5.088;2023-11-18T02:20:22;8.90;80.50
69626;DHT22;56847;51.984;5.088;2023-11-18T02:22:51;8.90;80.40
69626;DHT22;56847;51.984;5.088;2023-11-18T02:25:19;8.90;80.40
69626;DHT22;56847;51.984;5.088;2023-11-18T02:27:48;8.90;80.40
69626;DHT22;56847;51.984;5.088;2023-11-18T02:30:18;8.90;80.40
69626;DHT22;56847;51.984;5.088;2023-11-18T02:32:57;8.90;80.40
69626;DHT22;56847;51.984;5.088;2023-11-18T02:35:30;8.90;80.50
69626;DHT22;56847;51.984;5.088;2023-11-18T02:38:02;8.90;80.50
69626;DHT22;56847;51.984;5.088;2023-11-18T02:40:37;8.90;80.50
69626;DHT22;56847;51.984;5.088;2023-11-18T02:43:06;8.90;80.50
69626;DHT22;56847;51.984;5.088;2023-11-18T02:45:35;8.90;80.50
69626;DHT22;56847;51.984;5.088;2023-11-18T02:48:04;8.90;80.50
69626;DHT22;56847;51.984;5.088;2023-11-18T02:50:34;8.90;80.50
69626;DHT22;56847;51.984;5.088;2023-11-18T02:53:03;8.90;80.50
69626;DHT22;56847;51.984;5.088;2023-11-18T02:55:30;8.90;80.50
69626;DHT22;56847;51.984;5.088;2023-11-18T02:57:57;8.90;80.60
69626;DHT22;56847;51.984;5.088;2023-11-18T03:00:24;8.90;80.70
69626;DHT22;56847;51.984;5.088;2023-11-18T03:02:51;8.90;80.80
69626;DHT22;56847;51.984;5.088;2023-11-18T03:05:19;8.90;80.80
69626;DHT22;56847;51.984;5.088;2023-11-18T03:07:47;8.90;80.80
69626;DHT22;56847;51.984;5.088;2023-11-18T03:10:33;8.90;80.80
69626;DHT22;56847;51.984;5.088;2023-11-18T03:13:15;9.00;80.70
69626;DHT22;56847;51.984;5.088;2023-11-18T03:15:42;9.00;80.80
69626;DHT22;56847;51.984;5.088;2023-11-18T03:18:09;9.00;80.90
69626;DHT22;56847;51.984;5.088;2023-11-18T03:20:36;9.00;80.90
69626;DHT22;56847;51.984;5.088;2023-11-18T03:23:03;9.00;80.90
69626;DHT22;56847;51.984;5.088;2023-11-18T03:25:30;9.00;80.80
69626;DHT22;56847;51.984;5.088;2023-11-18T03:27:57;9.00;80.80
69626;DHT22;56847;51.984;5.088;2023-11-18T03:30:24;9.10;80.70
69626;DHT22;56847;51.984;5.088;2023-11-18T03:32:51;9.10;80.70
69626;DHT22;56847;51.984;5.088;2023-11-18T03:35:18;9.10;80.70
69626;DHT22;56847;51.984;5.088;2023-11-18T03:37:46;9.10;80.70
69626;DHT22;56847;51.984;5.088;2023-11-18T03:40:14;9.10;80.70
69626;DHT22;56847;51.984;5.088;2023-11-18T03:42:41;9.10;80.70
69626;DHT22;56847;51.984;5.088;2023-11-18T03:45:09;9.10;80.70
69626;DHT22;56847;51.984;5.088;2023-11-18T03:47:37;9.10;80.70
69626;DHT22;56847;51.984;5.088;2023-11-18T03:50:05;9.10;80.70
69626;DHT22;56847;51.984;5.088;2023-11-18T03:52:32;9.10;80.80
69626;DHT22;56847;51.984;5.088;2023-11-18T03:55:03;9.10;80.80
69626;DHT22;56847;51.984;5.088;2023-11-18T03:57:32;9.10;80.80
69626;DHT22;56847;51.984;5.088;2023-11-18T03:59:59;9.10;80.80
69626;DHT22;56847;51.984;5.088;2023-11-18T04:02:26;9.10;80.80
69626;DHT22;56847;51.984;5.088;2023-11-18T04:04:53;9.10;80.80
69626;DHT22;56847;51.984;5.088;2023-11-18T04:07:21;9.10;80.80
69626;DHT22;56847;51.984;5.088;2023-11-18T04:09:48;9.10;80.70
69626;DHT22;56847;51.984;5.088;2023-11-18T04:12:15;9.10;80.60
69626;DHT22;56847;51.984;5.088;2023-11-18T04:14:43;9.10;80.70
69626;DHT22;56847;51.984;5.088;2023-11-18T04:17:09;9.10;80.70
69626;DHT22;56847;51.984;5.088;2023-11-18T04:19:36;9.10;80.70
69626;DHT22;56847;51.984;5.088;2023-11-18T04:22:05;9.10;80.70
69626;DHT22;56847;51.984;5.088;2023-11-18T04:24:32;9.10;80.80
69626;DHT22;56847;51.984;5.088;2023-11-18T04:27:02;9.10;80.90
69626;DHT22;56847;51.984;5.088;2023-11-18T04:29:29;9.20;80.90
69626;DHT22;56847;51.984;5.088;2023-11-18T04:31:56;9.20;80.90
69626;DHT22;56847;51.984;5.088;2023-11-18T04:34:24;9.20;80.90
69626;DHT22;56847;51.984;5.088;2023-11-18T04:36:51;9.20;80.90
69626;DHT22;56847;51.984;5.088;2023-11-18T04:39:18;9.20;80.90
69626;DHT22;56847;51.984;5.088;2023-11-18T04:41:47;9.20;81.00
69626;DHT22;56847;51.984;5.088;2023-11-18T04:44:14;9.20;80.90
69626;DHT22;56847;51.984;5.088;2023-11-18T04:46:43;9.20;80.90
69626;DHT22;56847;51.984;5.088;2023-11-18T04:49:11;9.20;80.90
69626;DHT22;56847;51.984;5.088;2023-11-18T04:51:39;9.20;81.00
69626;DHT22;56847;51.984;5.088;2023-11-18T04:54:06;9.20;81.00
69626;DHT22;56847;51.984;5.088;2023-11-18T04:56:34;9.20;81.00
69626;DHT22;56847;51.984;5.088;2023-11-18T04:59:05;9.20;80.90
69626;DHT22;56847;51.984;5.088;2023-11-18T05:01:32;9.20;81.00
69626;DHT22;56847;51.984;5.088;2023-11-18T05:04:00;9.20;81.00
69626;DHT22;56847;51.984;5.088;2023-11-18T05:06:27;9.20;80.90
69626;DHT22;56847;51.984;5.088;2023-11-18T05:08:54;9.20;81.00
69626;DHT22;56847;51.984;5.088;2023-11-18T05:11:21;9.20;80.90
69626;DHT22;56847;51.984;5.088;2023-11-18T05:13:48;9.30;80.90
69626;DHT22;56847;51.984;5.088;2023-11-18T05:16:16;9.30;80.90
69626;DHT22;56847;51.984;5.088;2023-11-18T05:18:43;9.30;80.90
69626;DHT22;56847;51.984;5.088;2023-11-18T05:21:10;9.30;80.90
69626;DHT22;56847;51.984;5.088;2023-11-18T05:23:38;9.30;80.90
69626;DHT22;56847;51.984;5.088;2023-11-18T05:26:05;9.30;80.90
69626;DHT22;56847;51.984;5.088;2023-11-18T05:28:33;9.30;80.90
69626;DHT22;56847;51.984;5.088;2023-11-18T05:31:01;9.30;80.90
69626;DHT22;56847;51.984;5.088;2023-11-18T05:33:32;9.30;80.80
69626;DHT22;56847;51.984;5.088;2023-11-18T05:36:01;9.30;80.80
69626;DHT22;56847;51.984;5.088;2023-11-18T05:38:32;9.30;80.90
69626;DHT22;56847;51.984;5.088;2023-11-18T05:41:02;9.30;80.90
69626;DHT22;56847;51.984;5.088;2023-11-18T05:43:32;9.40;80.80
69626;DHT22;56847;51.984;5.088;2023-11-18T05:46:07;9.40;80.80
69626;DHT22;56847;51.984;5.088;2023-11-18T05:49:04;9.40;80.70
69626;DHT22;56847;51.984;5.088;2023-11-18T05:51:34;9.40;80.80
69626;DHT22;56847;51.984;5.088;2023-11-18T05:54:01;9.40;80.80
69626;DHT22;56847;51.984;5.088;2023-11-18T05:56:28;9.40;80.80
69626;DHT22;56847;51.984;5.088;2023-11-18T05:58:55;9.40;80.80
69626;DHT22;56847;51.984;5.088;2023-11-18T06:01:23;9.40;80.80
69626;DHT22;56847;51.984;5.088;2023-11-18T06:03:51;9.40;80.70
69626;DHT22;56847;51.984;5.088;2023-11-18T06:06:18;9.40;80.80
69626;DHT22;56847;51.984;5.088;2023-11-18T06:08:50;9.40;80.70
69626;DHT22;56847;51.984;5.088;2023-11-18T06:11:18;9.40;80.80
69626;DHT22;56847;51.984;5.088;2023-11-18T06:13:50;9.40;80.70
69626;DHT22;56847;51.984;5.088;2023-11-18T06:16:22;9.40;80.70
69626;DHT22;56847;51.984;5.088;2023-11-18T06:18:55;9.40;80.70
69626;DHT22;56847;51.984;5.088;2023-11-18T06:21:24;9.40;80.70
69626;DHT22;56847;51.984;5.088;2023-11-18T06:23:52;9.40;80.70
69626;DHT22;56847;51.984;5.088;2023-11-18T06:26:19;9.50;80.60
69626;DHT22;56847;51.984;5.088;2023-11-18T06:28:48;9.40;80.70
69626;DHT22;56847;51.984;5.088;2023-11-18T06:31:18;9.50;80.60
69626;DHT22;56847;51.984;5.088;2023-11-18T06:33:47;9.40;80.60
69626;DHT22;56847;51.984;5.088;2023-11-18T06:38:42;9.40;80.60
69626;DHT22;56847;51.984;5.088;2023-11-18T06:41:10;9.50;80.60
69626;DHT22;56847;51.984;5.088;2023-11-18T06:43:45;9.50;80.60
69626;DHT22;56847;51.984;5.088;2023-11-18T06:46:20;9.50;80.50
69626;DHT22;56847;51.984;5.088;2023-11-18T06:48:50;9.50;80.50
69626;DHT22;56847;51.984;5.088;2023-11-18T06:51:21;9.50;80.50
69626;DHT22;56847;51.984;5.088;2023-11-18T06:53:51;9.50;80.50
69626;DHT22;56847;51.984;5.088;2023-11-18T06:56:19;9.50;80.50
69626;DHT22;56847;51.984;5.088;2023-11-18T06:58:45;9.50;80.50
69626;DHT22;56847;51.984;5.088;2023-11-18T07:01:13;9.50;80.50
69626;DHT22;56847;51.984;5.088;2023-11-18T07:03:42;9.50;80.40
69626;DHT22;56847;51.984;5.088;2023-11-18T07:06:09;9.50;80.40
69626;DHT22;56847;51.984;5.088;2023-11-18T07:08:37;9.50;80.40
69626;DHT22;56847;51.984;5.088;2023-11-18T07:11:04;9.50;80.40
69626;DHT22;56847;51.984;5.088;2023-11-18T07:13:33;9.50;80.40
69626;DHT22;56847;51.984;5.088;2023-11-18T07:16:03;9.50;80.40
69626;DHT22;56847;51.984;5.088;2023-11-18T07:18:32;9.50;80.50
69626;DHT22;56847;51.984;5.088;2023-11-18T07:21:02;9.50;80.50
69626;DHT22;56847;51.984;5.088;2023-11-18T07:23:34;9.50;80.50
69626;DHT22;56847;51.984;5.088;2023-11-18T07:26:02;9.60;80.40
69626;DHT22;56847;51.984;5.088;2023-11-18T07:28:30;9.60;80.40
69626;DHT22;56847;51.984;5.088;2023-11-18T07:30:58;9.60;80.40
69626;DHT22;56847;51.984;5.088;2023-11-18T07:33:29;9.60;80.40
69626;DHT22;56847;51.984;5.088;2023-11-18T07:35:58;9.60;80.40
69626;DHT22;56847;51.984;5.088;2023-11-18T07:38:25;9.60;80.40
69626;DHT22;56847;51.984;5.088;2023-11-18T07:40:54;9.60;80.30
69626;DHT22;56847;51.984;5.088;2023-11-18T07:43:23;9.70;80.30
69626;DHT22;56847;51.984;5.088;2023-11-18T07:45:50;9.60;80.20
69626;DHT22;56847;51.984;5.088;2023-11-18T07:48:20;9.70;80.30
69626;DHT22;56847;51.984;5.088;2023-11-18T07:50:47;9.70;80.30
69626;DHT22;56847;51.984;5.088;2023-11-18T07:53:14;9.70;80.20
69626;DHT22;56847;51.984;5.088;2023-11-18T07:55:41;9.70;80.20
69626;DHT22;56847;51.984;5.088;2023-11-18T07:58:09;9.70;80.20
69626;DHT22;56847;51.984;5.088;2023-11-18T08:00:40;9.70;80.20
69626;DHT22;56847;51.984;5.088;2023-11-18T08:03:08;9.70;80.20
69626;DHT22;56847;51.984;5.088;2023-11-18T08:05:39;9.70;80.20
69626;DHT22;56847;51.984;5.088;2023-11-18T08:08:07;9.70;80.20
69626;DHT22;56847;51.984;5.088;2023-11-18T08:10:35;9.80;80.20
69626;DHT22;56847;51.984;5.088;2023-11-18T08:13:05;9.80;80.30
69626;DHT22;56847;51.984;5.088;2023-11-18T08:15:37;9.80;80.20
69626;DHT22;56847;51.984;5.088;2023-11-18T08:18:04;9.80;80.20
69626;DHT22;56847;51.984;5.088;2023-11-18T08:20:31;9.80;80.20
69626;DHT22;56847;51.984;5.088;2023-11-18T08:22:58;9.80;80.30
69626;DHT22;56847;51.984;5.088;2023-11-18T08:25:25;9.80;80.30
69626;DHT22;56847;51.984;5.088;2023-11-18T08:27:52;9.90;80.40
69626;DHT22;56847;51.984;5.088;2023-11-18T08:30:19;9.90;80.30
69626;DHT22;56847;51.984;5.088;2023-11-18T08:32:47;9.90;80.40
69626;DHT22;56847;51.984;5.088;2023-11-18T08:35:15;9.90;80.50
69626;DHT22;56847;51.984;5.088;2023-11-18T08:37:43;10.00;80.40
69626;DHT22;56847;51.984;5.088;2023-11-18T08:40:10;10.00;80.40
69626;DHT22;56847;51.984;5.088;2023-11-18T08:42:50;10.00;80.30
69626;DHT22;56847;51.984;5.088;2023-11-18T08:45:25;10.10;80.30
69626;DHT22;56847;51.984;5.088;2023-11-18T08:47:59;10.10;80.30
69626;DHT22;56847;51.984;5.088;2023-11-18T08:50:26;10.10;80.30
69626;DHT22;56847;51.984;5.088;2023-11-18T08:52:58;10.10;80.10
69626;DHT22;56847;51.984;5.088;2023-11-18T08:55:30;10.10;80.20
69626;DHT22;56847;51.984;5.088;2023-11-18T08:58:10;10.10;80.20
69626;DHT22;56847;51.984;5.088;2023-11-18T09:00:58;10.10;80.10
69626;DHT22;56847;51.984;5.088;2023-11-18T09:03:33;10.20;80.10
69626;DHT22;56847;51.984;5.088;2023-11-18T09:06:05;10.10;80.00
69626;DHT22;56847;51.984;5.088;2023-11-18T09:08:35;10.10;80.00
69626;DHT22;56847;51.984;5.088;2023-11-18T09:11:04;10.10;80.00
69626;DHT22;56847;51.984;5.088;2023-11-18T09:13:35;10.10;80.10
69626;DHT22;56847;51.984;5.088;2023-11-18T09:16:04;10.10;80.00
69626;DHT22;56847;51.984;5.088;2023-11-18T09:18:36;10.10;80.00
69626;DHT22;56847;51.984;5.088;2023-11-18T09:21:08;10.00;80.10
69626;DHT22;56847;51.984;5.088;2023-11-18T09:23:42;10.00;80.10
69626;DHT22;56847;51.984;5.088;2023-11-18T09:26:09;10.00;80.20
69626;DHT22;56847;51.984;5.088;2023-11-18T09:28:38;10.00;80.30
69626;DHT22;56847;51.984;5.088;2023-11-18T09:31:09;10.00;80.30
69626;DHT22;56847;51.984;5.088;2023-11-18T09:33:41;10.00;80.30
69626;DHT22;56847;51.984;5.088;2023-11-18T09:36:12;10.00;80.30
69626;DHT22;56847;51.984;5.088;2023-11-18T09:38:40;10.00;80.30
69626;DHT22;56847;51.984;5.088;2023-11-18T09:41:09;10.00;80.50
69626;DHT22;56847;51.984;5.088;2023-11-18T09:43:40;10.00;80.70
69626;DHT22;56847;51.984;5.088;2023-11-18T09:46:26;10.00;80.80
69626;DHT22;56847;51.984;5.088;2023-11-18T09:49:18;10.10;81.00
69626;DHT22;56847;51.984;5.088;2023-11-18T09:51:57;10.20;81.10
69626;DHT22;56847;51.984;5.088;2023-11-18T09:54:33;10.20;81.00
69626;DHT22;56847;51.984;5.088;2023-11-18T10:00:04;10.30;81.10
69626;DHT22;56847;51.984;5.088;2023-11-18T10:02:48;10.30;81.00
69626;DHT22;56847;51.984;5.088;2023-11-18T10:05:19;10.30;81.10
69626;DHT22;56847;51.984;5.088;2023-11-18T10:07:50;10.30;81.30
69626;DHT22;56847;51.984;5.088;2023-11-18T10:10:19;10.30;81.40
69626;DHT22;56847;51.984;5.088;2023-11-18T10:12:49;10.40;81.50
69626;DHT22;56847;51.984;5.088;2023-11-18T10:15:22;10.40;81.60
69626;DHT22;56847;51.984;5.088;2023-11-18T10:17:53;10.50;81.60
69626;DHT22;56847;51.984;5.088;2023-11-18T10:23:10;10.50;81.60
69626;DHT22;56847;51.984;5.088;2023-11-18T10:25:52;10.50;81.50
69626;DHT22;56847;51.984;5.088;2023-11-18T10:28:31;10.50;81.60
69626;DHT22;56847;51.984;5.088;2023-11-18T10:31:01;10.50;81.70
69626;DHT22;56847;51.984;5.088;2023-11-18T10:33:32;10.60;81.70
69626;DHT22;56847;51.984;5.088;2023-11-18T10:35:59;10.60;81.80
69626;DHT22;56847;51.984;5.088;2023-11-18T10:38:38;10.60;81.80
69626;DHT22;56847;51.984;5.088;2023-11-18T10:41:13;10.60;81.80
69626;DHT22;56847;51.984;5.088;2023-11-18T10:43:40;10.60;81.80
69626;DHT22;56847;51.984;5.088;2023-11-18T10:46:13;10.60;82.00
69626;DHT22;56847;51.984;5.088;2023-11-18T10:48:42;10.60;81.90
69626;DHT22;56847;51.984;5.088;2023-11-18T10:51:20;10.70;82.00
69626;DHT22;56847;51.984;5.088;2023-11-18T10:53:52;10.70;82.10
69626;DHT22;56847;51.984;5.088;2023-11-18T10:56:31;10.70;82.10
69626;DHT22;56847;51.984;5.088;2023-11-18T10:59:07;10.70;82.00
69626;DHT22;56847;51.984;5.088;2023-11-18T11:01:37;10.70;82.00
69626;DHT22;56847;51.984;5.088;2023-11-18T11:04:15;10.70;82.20
69626;DHT22;56847;51.984;5.088;2023-11-18T11:06:49;10.70;82.20
69626;DHT22;56847;51.984;5.088;2023-11-18T11:09:24;10.70;82.20
69626;DHT22;56847;51.984;5.088;2023-11-18T11:11:56;10.70;82.10
69626;DHT22;56847;51.984;5.088;2023-11-18T11:14:27;10.70;82.20
69626;DHT22;56847;51.984;5.088;2023-11-18T11:17:07;10.60;82.30
69626;DHT22;56847;51.984;5.088;2023-11-18T11:19:52;10.60;82.60
69626;DHT22;56847;51.984;5.088;2023-11-18T11:22:28;10.60;82.60
69626;DHT22;56847;51.984;5.088;2023-11-18T11:25:22;10.60;82.70
69626;DHT22;56847;51.984;5.088;2023-11-18T11:28:17;10.60;82.90
69626;DHT22;56847;51.984;5.088;2023-11-18T11:30:53;10.70;83.20
69626;DHT22;56847;51.984;5.088;2023-11-18T11:36:11;10.70;83.60
69626;DHT22;56847;51.984;5.088;2023-11-18T11:38:38;10.70;83.60
69626;DHT22;56847;51.984;5.088;2023-11-18T11:41:07;10.80;83.50
69626;DHT22;56847;51.984;5.088;2023-11-18T11:43:36;10.80;83.60
69626;DHT22;56847;51.984;5.088;2023-11-18T11:46:04;10.90;83.60
69626;DHT22;56847;51.984;5.088;2023-11-18T11:48:40;10.90;83.50
69626;DHT22;56847;51.984;5.088;2023-11-18T11:54:06;11.00;83.70
69626;DHT22;56847;51.984;5.088;2023-11-18T11:56:44;11.00;83.70
69626;DHT22;56847;51.984;5.088;2023-11-18T11:59:16;11.10;83.60
69626;DHT22;56847;51.984;5.088;2023-11-18T12:01:47;11.10;83.50
69626;DHT22;56847;51.984;5.088;2023-11-18T12:04:20;11.10;83.40
69626;DHT22;56847;51.984;5.088;2023-11-18T12:06:55;11.10;83.50
69626;DHT22;56847;51.984;5.088;2023-11-18T12:09:38;11.10;83.50
69626;DHT22;56847;51.984;5.088;2023-11-18T12:12:22;11.10;83.60
69626;DHT22;56847;51.984;5.088;2023-11-18T12:14:58;11.10;83.60
69626;DHT22;56847;51.984;5.088;2023-11-18T12:20:37;11.10;83.90
69626;DHT22;56847;51.984;5.088;2023-11-18T12:23:09;11.10;83.90
69626;DHT22;56847;51.984;5.088;2023-11-18T12:25:43;11.10;83.80
69626;DHT22;56847;51.984;5.088;2023-11-18T12:28:15;11.10;83.90
69626;DHT22;56847;51.984;5.088;2023-11-18T12:30:44;11.10;83.70
69626;DHT22;56847;51.984;5.088;2023-11-18T12:41:54;11.10;84.10
69626;DHT22;56847;51.984;5.088;2023-11-18T12:47:00;11.10;84.10
69626;DHT22;56847;51.984;5.088;2023-11-18T12:49:40;11.10;84.10
69626;DHT22;56847;51.984;5.088;2023-11-18T12:52:11;11.10;84.20
69626;DHT22;56847;51.984;5.088;2023-11-18T12:54:41;11.10;84.20
69626;DHT22;56847;51.984;5.088;2023-11-18T12:57:11;11.10;84.20
69626;DHT22;56847;51.984;5.088;2023-11-18T12:59:42;11.10;84.30
69626;DHT22;56847;51.984;5.088;2023-11-18T13:02:12;11.10;84.50
69626;DHT22;56847;51.984;5.088;2023-11-18T13:04:50;11.20;84.50
69626;DHT22;56847;51.984;5.088;2023-11-18T13:07:20;11.20;84.40
69626;DHT22;56847;51.984;5.088;2023-11-18T13:09:48;11.20;84.40
69626;DHT22;56847;51.984;5.088;2023-11-18T13:12:17;11.20;84.40
69626;DHT22;56847;51.984;5.088;2023-11-18T13:14:47;11.20;84.40
69626;DHT22;56847;51.984;5.088;2023-11-18T13:17:17;11.20;84.30
69626;DHT22;56847;51.984;5.088;2023-11-18T13:19:45;11.20;84.40
69626;DHT22;56847;51.984;5.088;2023-11-18T13:22:13;11.20;84.40
69626;DHT22;56847;51.984;5.088;2023-11-18T13:24:43;11.20;84.40
69626;DHT22;56847;51.984;5.088;2023-11-18T13:27:16;11.10;84.50
69626;DHT22;56847;51.984;5.088;2023-11-18T13:29:49;11.10;84.60
69626;DHT22;56847;51.984;5.088;2023-11-18T13:32:18;11.10;84.80
69626;DHT22;56847;51.984;5.088;2023-11-18T13:34:50;11.10;84.90
69626;DHT22;56847;51.984;5.088;2023-11-18T13:37:18;11.10;84.90
69626;DHT22;56847;51.984;5.088;2023-11-18T13:39:56;11.20;85.00
69626;DHT22;56847;51.984;5.088;2023-11-18T13:42:27;11.20;85.00
69626;DHT22;56847;51.984;5.088;2023-11-18T13:45:04;11.20;85.00
69626;DHT22;56847;51.984;5.088;2023-11-18T13:47:38;11.20;84.90
69626;DHT22;56847;51.984;5.088;2023-11-18T13:50:10;11.20;84.90
69626;DHT22;56847;51.984;5.088;2023-11-18T13:52:37;11.20;85.00
69626;DHT22;56847;51.984;5.088;2023-11-18T13:55:07;11.20;85.00
69626;DHT22;56847;51.984;5.088;2023-11-18T13:57:35;11.20;85.10
69626;DHT22;56847;51.984;5.088;2023-11-18T14:00:03;11.20;85.10
69626;DHT22;56847;51.984;5.088;2023-11-18T14:02:33;11.20;85.10
69626;DHT22;56847;51.984;5.088;2023-11-18T14:05:03;11.20;85.20
69626;DHT22;56847;51.984;5.088;2023-11-18T14:07:37;11.20;85.20
69626;DHT22;56847;51.984;5.088;2023-11-18T14:10:05;11.20;85.10
69626;DHT22;56847;51.984;5.088;2023-11-18T14:12:35;11.20;85.10
69626;DHT22;56847;51.984;5.088;2023-11-18T14:15:02;11.20;85.10
69626;DHT22;56847;51.984;5.088;2023-11-18T14:17:30;11.30;85.10
69626;DHT22;56847;51.984;5.088;2023-11-18T14:19:57;11.20;85.10
69626;DHT22;56847;51.984;5.088;2023-11-18T14:22:27;11.30;85.20
69626;DHT22;56847;51.984;5.088;2023-11-18T14:24:55;11.30;85.20
69626;DHT22;56847;51.984;5.088;2023-11-18T14:27:22;11.30;85.20
69626;DHT22;56847;51.984;5.088;2023-11-18T14:29:49;11.30;85.20
69626;DHT22;56847;51.984;5.088;2023-11-18T14:32:16;11.30;85.20
69626;DHT22;56847;51.984;5.088;2023-11-18T14:34:44;11.30;85.20
69626;DHT22;56847;51.984;5.088;2023-11-18T14:37:11;11.30;85.10
69626;DHT22;56847;51.984;5.088;2023-11-18T14:39:38;11.30;85.20
69626;DHT22;56847;51.984;5.088;2023-11-18T14:42:07;11.30;85.20
69626;DHT22;56847;51.984;5.088;2023-11-18T14:44:36;11.30;85.30
69626;DHT22;56847;51.984;5.088;2023-11-18T14:47:03;11.40;85.20
69626;DHT22;56847;51.984;5.088;2023-11-18T14:49:32;11.40;85.20
69626;DHT22;56847;51.984;5.088;2023-11-18T14:51:59;11.40;85.10
69626;DHT22;56847;51.984;5.088;2023-11-18T14:54:26;11.40;85.20
69626;DHT22;56847;51.984;5.088;2023-11-18T14:56:53;11.40;85.20
69626;DHT22;56847;51.984;5.088;2023-11-18T14:59:20;11.40;85.20
69626;DHT22;56847;51.984;5.088;2023-11-18T15:01:49;11.40;85.20
69626;DHT22;56847;51.984;5.088;2023-11-18T15:04:16;11.40;85.20
69626;DHT22;56847;51.984;5.088;2023-11-18T15:06:43;11.40;85.20
69626;DHT22;56847;51.984;5.088;2023-11-18T15:09:10;11.40;85.20
69626;DHT22;56847;51.984;5.088;2023-11-18T15:11:37;11.40;85.30
69626;DHT22;56847;51.984;5.088;2023-11-18T15:14:04;11.40;85.30
69626;DHT22;56847;51.984;5.088;2023-11-18T15:16:34;11.40;85.30
69626;DHT22;56847;51.984;5.088;2023-11-18T15:19:02;11.40;85.30
69626;DHT22;56847;51.984;5.088;2023-11-18T15:21:28;11.40;85.30
69626;DHT22;56847;51.984;5.088;2023-11-18T15:23:59;11.40;85.40
69626;DHT22;56847;51.984;5.088;2023-11-18T15:26:28;11.40;85.40
69626;DHT22;56847;51.984;5.088;2023-11-18T15:28:58;11.50;85.40
69626;DHT22;56847;51.984;5.088;2023-11-18T15:31:25;11.50;85.40
69626;DHT22;56847;51.984;5.088;2023-11-18T15:33:56;11.50;85.30
69626;DHT22;56847;51.984;5.088;2023-11-18T15:36:26;11.50;85.40
69626;DHT22;56847;51.984;5.088;2023-11-18T15:38:53;11.50;85.50
69626;DHT22;56847;51.984;5.088;2023-11-18T15:41:20;11.50;85.50
69626;DHT22;56847;51.984;5.088;2023-11-18T15:43:48;11.50;85.60
69626;DHT22;56847;51.984;5.088;2023-11-18T15:46:15;11.50;85.70
69626;DHT22;56847;51.984;5.088;2023-11-18T15:48:43;11.50;85.70
69626;DHT22;56847;51.984;5.088;2023-11-18T15:51:10;11.50;85.70
69626;DHT22;56847;51.984;5.088;2023-11-18T15:53:39;11.50;85.70
69626;DHT22;56847;51.984;5.088;2023-11-18T15:56:07;11.50;85.70
69626;DHT22;56847;51.984;5.088;2023-11-18T15:58:35;11.50;85.70
69626;DHT22;56847;51.984;5.088;2023-11-18T16:01:03;11.50;85.70
69626;DHT22;56847;51.984;5.088;2023-11-18T16:03:30;11.50;85.70
69626;DHT22;56847;51.984;5.088;2023-11-18T16:05:57;11.60;85.70
69626;DHT22;56847;51.984;5.088;2023-11-18T16:08:24;11.60;85.70
69626;DHT22;56847;51.984;5.088;2023-11-18T16:10:51;11.60;85.70
69626;DHT22;56847;51.984;5.088;2023-11-18T16:13:20;11.60;85.70
69626;DHT22;56847;51.984;5.088;2023-11-18T16:15:48;11.60;85.90
69626;DHT22;56847;51.984;5.088;2023-11-18T16:18:15;11.70;85.90
69626;DHT22;56847;51.984;5.088;2023-11-18T16:20:42;11.70;85.80
69626;DHT22;56847;51.984;5.088;2023-11-18T16:23:10;11.70;85.80
69626;DHT22;56847;51.984;5.088;2023-11-18T16:25:37;11.70;85.80
69626;DHT22;56847;51.984;5.088;2023-11-18T16:28:04;11.70;85.80